Webcam op het Zuiden Meer informatie Webcam op het Zuiden


Webcam op het Westen Meer informatie Webcam op het Westen


Onweer radar Meer informatie blitzortung!


Regen radar  rain snow radar


Lokaal brand risico:
CBI


Regionaal brand risico: Meer informatie


Lokaal brand risico:
Gebaseerd op actuele waarde
CBI


Bezoek ook deze websites:

Template documentation
and downloads

And another site



Het weer levert geen direct gevaar op.    Er zijn geen waarschuwingen afgegeven.

METAR rapporten vliegvelden

   
ETWM - Meppen, Germany
Afstand tot: O 29 km
Gewijzigd: 15-09-2019 20:20
  
  
   Wind: WNW 5.6 km/h
Wind: WNW 5.6 km/h
Temperatuur: 16°C
Dauwpunt: 11°C
Vochtigheid: 72%
Barometer: 1021 hPa
ETWM 151820Z AUTO 30003KT //// // ////// 16/11 Q1021 ///
EHGG - Groningen/Eelde, Netherlands
Afstand tot: NNW 47 km
Gewijzigd: 15-09-2019 20:25
Gedeeltelijk bewolkt  
Gedeeltelijk bewolkt  
   Wind: WNW 7.4 km/h
Wind: WNW 7.4 km/h
Temperatuur: 15°C
Dauwpunt: 10°C
Vochtigheid: 72%
Barometer: 1021 hPa
Bewolking: Gedeeltelijk bewolkt
Zicht: meer dan 10 km
Bewolking: Gedeeltelijk bewolkt
EHGG 151825Z AUTO 29004KT 260V320 9999 NSC 15/10 Q1021
EDDG - Muenster/Osnabru, Germany
Afstand tot: ZO 87 km
Gewijzigd: 15-09-2019 20:20
Grotendeels bewolkt  
Grotendeels bewolkt  
   Wind: NNW 14.8 km/h
Wind: NNW 14.8 km/h
Temperatuur: 17°C
Dauwpunt: 14°C
Vochtigheid: 83%
Barometer: 1021 hPa
Bewolking: Grotendeels bewolkt
Zicht: meer dan 10 km
Bewolking: Licht bewolkt 1200 ft,
Grotendeels bewolkt 3300 ft
EDDG 151820Z 33008KT 9999 FEW012 BKN033 17/14 Q1021 BECMG 28004KT
EHLW - Leeuwarden Rnlaf, Netherlands
Afstand tot: NW 93 km
Gewijzigd: 15-09-2019 20:25
Bewolking  
Bewolking  
   Wind: WNW 5.6 km/h
Wind: WNW 5.6 km/h
Temperatuur: 14°C
Dauwpunt: 11°C
Vochtigheid: 82%
Barometer: 1021 hPa
Bewolking: Bewolking
Zicht: meer dan 10 km
Bewolking: Bewolking 6900 ft
EHLW 151825Z AUTO 30003KT 9999 OVC069 14/11 Q1021 BLU
ETNT - Wittmundhaven(Ga, Germany
Afstand tot: NNO 100 km
Gewijzigd: 15-09-2019 20:20
Grotendeels bewolkt  
Grotendeels bewolkt  
   Wind: Westen 9.3 km/h
Wind: Westen 9.3 km/h
Temperatuur: 15°C
Dauwpunt: 10°C
Vochtigheid: 72%
Barometer: 1020 hPa
Bewolking: Grotendeels bewolkt
Zicht: meer dan 10 km
Bewolking: Licht bewolkt 2000 ft,
Grotendeels bewolkt 11000 ft
ETNT 151820Z 27005KT 9999 FEW020 BKN110 15/10 Q1020 BLU
ETND - Diepholz (ger-Af, Germany
Afstand tot: O 104 km
Gewijzigd: 13-09-2019 11:20
Verouderd
Grotendeels bewolkt  
Grotendeels bewolkt  
   Wind: NW 14.8 km/h
Wind: NW 14.8 km/h
Temperatuur: 19°C
Dauwpunt: 14°C
Vochtigheid: 73%
Barometer: 1030 hPa
Bewolking: Grotendeels bewolkt
Zicht: meer dan 10 km
Bewolking: Grotendeels bewolkt 2200 ft
ETND 130920Z 32008KT 9999 BKN022 19/14 Q1030 WHT
ETNT - Wittmundhaven(Ga, Germany
Afstand tot: NNO 102 km
Gewijzigd: 15-09-2019 20:20
Grotendeels bewolkt  
Grotendeels bewolkt  
   Wind: Westen 9.3 km/h
Wind: Westen 9.3 km/h
Temperatuur: 15°C
Dauwpunt: 10°C
Vochtigheid: 72%
Barometer: 1020 hPa
Bewolking: Grotendeels bewolkt
Zicht: meer dan 10 km
Bewolking: Licht bewolkt 2000 ft,
Grotendeels bewolkt 11000 ft
ETNT 151820Z 27005KT 9999 FEW020 BKN110 15/10 Q1020 BLU
EHDL - Deelen Rnlafb, Netherlands
Afstand tot: ZW 103 km
Gewijzigd: 15-09-2019 20:25
Bewolking  
Bewolking  
   Wind: NW 13 km/h
Wind: NW 13 km/h
Temperatuur: 18°C
Dauwpunt: 14°C
Vochtigheid: 78%
Barometer: 1022 hPa
Bewolking: Bewolking
Zicht: meer dan 10 km
Bewolking: Licht bewolkt 2200 ft,
Bewolking 2900 ft
EHDL 151825Z AUTO 32007KT 250V360 9999 FEW022 OVC029 18/14 Q1022 BLU
EHMA - Awg-1 Sea, Netherlands
Afstand tot: NW 105 km
Gewijzigd: 15-09-2019 20:25
Licht bewolkt  
Licht bewolkt  
   Wind: WNW 25.9 km/h
Wind: WNW 25.9 km/h
Temperatuur: 16°C
Dauwpunt: 10°C
Vochtigheid: 68%
Barometer: 1021 hPa
Bewolking: Licht bewolkt
Zicht: meer dan 10 km
Bewolking: Licht bewolkt 2400 ft
EHMA 151825Z AUTO 29014KT 9999 FEW024 16/10 Q1021 W///H///
EDDW - Bremen, Germany
Afstand tot: ONO 135 km
Gewijzigd: 15-09-2019 20:20
Gedeeltelijk bewolkt  
Gedeeltelijk bewolkt  
   Wind: Westen 14.8 km/h
Wind: Westen 14.8 km/h
Temperatuur: 15°C
Dauwpunt: 13°C
Vochtigheid: 88%
Barometer: 1020 hPa
Bewolking: Gedeeltelijk bewolkt
Zicht: meer dan 10 km
Bewolking: Gedeeltelijk bewolkt 4600 ft
EDDW 151820Z 28008KT 9999 SCT046 15/13 Q1020 NOSIG
EHVL - Vlieland Island, Netherlands
Afstand tot: WNW 138 km
Gewijzigd: 15-09-2019 20:25
Bewolking  
Bewolking  
   Wind: NW 16.7 km/h
Wind: NW 16.7 km/h
Temperatuur: 15°C
Dauwpunt: 10°C
Vochtigheid: 72%
Barometer: 1021 hPa
Bewolking: Bewolking
Zicht: meer dan 10 km
Bewolking: Licht bewolkt 5200 ft,
Bewolking 6100 ft
EHVL 151825Z AUTO 31009KT 9999 FEW052 OVC061 15/10 Q1021 BLU
EDLV - Niederrhein, Germany
Afstand tot: ZZW 139 km
Gewijzigd: 15-09-2019 20:20
Helder  
Helder  
   Wind: NW 5.6 km/h
Wind: NW 5.6 km/h
Temperatuur: 20°C
Dauwpunt: 15°C
Vochtigheid: 73%
Barometer: 1022 hPa
Zicht: meer dan 10 km
Bewolking: Helder
EDLV 151820Z 31003KT CAVOK 20/15 Q1022
EHKD - De Kooy (navy), Netherlands
Afstand tot: W 144 km
Gewijzigd: 15-09-2019 20:25
Bewolking  
Bewolking  
   Wind: WNW 5.6 km/h
Wind: WNW 5.6 km/h
Temperatuur: 16°C
Dauwpunt: 12°C
Vochtigheid: 77%
Barometer: 1022 hPa
Bewolking: Bewolking
Zicht: meer dan 10 km
Bewolking: Bewolking 3300 ft
EHKD 151825Z AUTO 30003KT 270V340 9999 OVC033 16/12 Q1022 BLU
EDLW - Dortmund/Wickede, Germany
Afstand tot: ZZO 150 km
Gewijzigd: 15-09-2019 20:20
Helder  
Helder  
   Wind: WZW 5.6 km/h
Wind: WZW 5.6 km/h
Temperatuur: 19°C
Dauwpunt: 7°C
Vochtigheid: 46%
Barometer: 1021 hPa
Zicht: meer dan 10 km
Bewolking: Helder
EDLW 151820Z 25003KT 230V300 CAVOK 19/07 Q1021
EHVK - Volkel Rnlafb, Netherlands
Afstand tot: ZZW 149 km
Gewijzigd: 15-09-2019 20:25
Grotendeels bewolkt  
Grotendeels bewolkt  
   Wind: NNW 9.3 km/h
Wind: NNW 9.3 km/h
Temperatuur: 19°C
Dauwpunt: 14°C
Vochtigheid: 73%
Barometer: 1022 hPa
Bewolking: Grotendeels bewolkt
Zicht: meer dan 10 km
Bewolking: Licht bewolkt 2500 ft,
Grotendeels bewolkt 2900 ft,
Grotendeels bewolkt 3300 ft
EHVK 151825Z AUTO 33005KT 290V360 9999 FEW025 BKN029 BKN033 19/14 Q1022 BLU
EDLW - Dortmund/Wickede, Germany
Afstand tot: ZZO 150 km
Gewijzigd: 15-09-2019 20:20
Helder  
Helder  
   Wind: WZW 5.6 km/h
Wind: WZW 5.6 km/h
Temperatuur: 19°C
Dauwpunt: 7°C
Vochtigheid: 46%
Barometer: 1021 hPa
Zicht: meer dan 10 km
Bewolking: Helder
EDLW 151820Z 25003KT 230V300 CAVOK 19/07 Q1021
EHMG - L9-Ff-1 Sea, Netherlands
Afstand tot: NW 155 km
Gewijzigd: 15-09-2019 20:25
Licht bewolkt  
Licht bewolkt  
   Wind: varieert 18.5 km/h
Wind: varieert 18.5 km/h
Temperatuur: 15°C
Dauwpunt: 11°C
Vochtigheid: 77%
Barometer: 1022 hPa
Bewolking: Licht bewolkt
Zicht: meer dan 10 km
Bewolking: Licht bewolkt 1900 ft
EHMG 151825Z AUTO VRB10KT 9999 FEW019 15/11 Q1022 W///H///
ETHB - Buckeburg(Ger-Ar, Germany
Afstand tot: OZO 161 km
Gewijzigd: 15-09-2019 20:20
Wat regen mogelijk, Grotendeels bewolkt  
Wat regen mogelijk, Grotendeels bewolkt  
   Wind: Noorden 16.7 km/h
Wind: Noorden 16.7 km/h
Temperatuur: 17°C
Dauwpunt: 15°C
Vochtigheid: 88%
Barometer: 1020 hPa
Bewolking: Grotendeels bewolkt
Zicht: meer dan 10 km
Bewolking: Gedeeltelijk bewolkt 1300 ft,
Grotendeels bewolkt 4000 ft
ETHB 151820Z 35009KT 9999 -RA SCT013 BKN040 17/15 Q1020 BLU
ETMN - Nordholz (ger-Na, Germany
Afstand tot: NO 164 km
Gewijzigd: 15-09-2019 20:20
Grotendeels bewolkt  
Grotendeels bewolkt  
   Wind: WNW 20.4 km/h
Wind: WNW 20.4 km/h
Temperatuur: 14°C
Dauwpunt: 10°C
Vochtigheid: 77%
Barometer: 1019 hPa
Bewolking: Grotendeels bewolkt
Zicht: meer dan 10 km
Bewolking: Licht bewolkt 2200 ft,
Grotendeels bewolkt 12000 ft,
Grotendeels bewolkt 18000 ft
ETMN 151820Z 30011KT 9999 FEW022 BKN120 BKN180 14/10 Q1019 BLU
EDDL - Duesseldorf, Germany
Afstand tot: Z 165 km
Gewijzigd: 15-09-2019 20:20
Helder  
Helder  
   Wind: WNW 9.3 km/h
Wind: WNW 9.3 km/h
Temperatuur: 21°C
Dauwpunt: 7°C
Vochtigheid: 40%
Barometer: 1021 hPa
Zicht: meer dan 10 km
Bewolking: Helder
EDDL 151820Z 29005KT CAVOK 21/07 Q1021 NOSIG
EDLN - Monchengladbach, Germany
Afstand tot: Z 174 km
Gewijzigd: 15-09-2019 20:20
Helder  
Helder  
   Wind: Westen 5.6 km/h
Wind: Westen 5.6 km/h
Temperatuur: 20°C
Dauwpunt: 8°C
Vochtigheid: 46%
Barometer: 1021 hPa
Zicht: meer dan 10 km
Bewolking: Helder
EDLN 151820Z 28003KT 250V320 CAVOK 20/08 Q1021

Script ontwikkeld door  Saratoga-weather.org Aangepast voor de template door  Weerstation Leuven

U vindt ons ook hier:

Het Weer Aktueel

European Weather Network

Weather Underground

Wetterpage 24

Apparatuur in gebruik:

Weerstation
Davis VP2

Weerprogramma
Meteohub

Hardware
RaspberryPI, Wireless Weather Envoy, MeteoStick, TP-Link MR3020

Leverancier
Weerhuisje.nl weerstations

Davis VP2

Meteohub

RaspberryPI, Wireless Weather Envoy, MeteoStick, TP-Link MR3020

Weerhuisje.nl weerstations